Time;durP1;ratioP1;P1;durP2;ratioP2;P2;SDS_P1;SDS_P2;PMS_P1;PMS_P2;Temp;Humidity;BMP_temperature;BMP_pressure;BME280_temperature;BME280_humidity;BME280_pressure;Samples;Min_cycle;Max_cycle;Signal;HPM_P1;HPM_P2
2022/01/26 00:06:53;;;;;;;89.03;46.02;;;;;;;-3.99;76.93;101605.73;1425882;89;21437;-84
2022/01/26 00:09:20;;;;;;;87.82;46.88;;;;;;;-3.95;77.15;101612.98;1420506;89;22380;-83
2022/01/26 00:11:48;;;;;;;93.37;48.80;;;;;;;-3.91;77.03;101606.45;1397833;91;21449;-84
2022/01/26 00:14:15;;;;;;;86.47;45.28;;;;;;;-3.87;77.10;101607.25;1426292;87;21559;-82
2022/01/26 00:16:43;;;;;;;90.03;48.23;;;;;;;-3.84;77.01;101591.67;1419501;88;21596;-82
2022/01/26 00:19:20;;;;;;;84.90;48.80;;;;;;;-3.82;76.65;101576.98;1414810;90;21497;-82
2022/01/26 00:21:50;;;;;;;85.60;46.42;;;;;;;-3.82;77.21;101587.33;1383921;93;21645;-82
2022/01/26 00:29:32;;;;;;;88.72;48.50;;;;;;;-3.77;76.34;101562.23;1448883;87;21600;-82
2022/01/26 00:40:36;;;;;;;87.50;46.60;;;;;;;-3.87;78.22;101580.09;1441658;88;21421;-81
2022/01/26 00:43:14;;;;;;;91.95;49.70;;;;;;;-3.87;78.13;101582.67;1453080;88;23031;-82
2022/01/26 00:45:35;;;;;;;89.47;48.38;;;;;;;-3.83;78.25;101589.93;1456295;86;22612;-82
2022/01/26 00:48:06;;;;;;;81.30;45.95;;;;;;;-3.77;77.69;101583.34;1451919;87;21913;-82
2022/01/26 00:50:35;;;;;;;88.58;48.00;;;;;;;-3.71;77.33;101568.59;1464814;86;21931;-81
2022/01/26 00:53:04;;;;;;;84.65;47.35;;;;;;;-3.71;78.34;101580.64;1451224;87;21618;-82
2022/01/26 00:55:32;;;;;;;89.80;50.60;;;;;;;-3.74;78.66;101588.46;1453213;87;21632;-85
2022/01/26 00:57:59;;;;;;;93.35;50.65;;;;;;;-3.78;78.16;101582.50;1446598;87;21875;-84
2022/01/26 01:00:29;;;;;;;90.75;48.87;;;;;;;-3.77;78.24;101575.17;1413909;89;22383;-84
2022/01/26 01:02:58;;;;;;;81.08;46.23;;;;;;;-3.77;78.86;101576.88;1422698;90;21517;-83
2022/01/26 01:05:36;;;;;;;92.50;48.70;;;;;;;-3.82;79.11;101587.33;1428275;90;21385;-84
2022/01/26 01:08:05;;;;;;;98.33;50.67;;;;;;;-3.89;78.90;101584.42;1418694;90;21659;-84
2022/01/26 01:10:27;;;;;;;87.65;45.35;;;;;;;-3.91;78.99;101579.30;1440652;89;21434;-84
2022/01/26 01:12:57;;;;;;;86.75;47.13;;;;;;;-3.87;79.41;101589.14;1437246;88;21467;-85
2022/01/26 01:15:27;;;;;;;87.05;45.90;;;;;;;-3.85;79.34;101586.09;1437904;88;21524;-84
2022/01/26 01:18:08;;;;;;;93.67;48.63;;;;;;;-3.83;79.56;101584.31;1444872;89;21532;-84
2022/01/26 01:30:48;;;;;;;90.83;51.25;;;;;;;-3.86;80.13;101569.70;1429938;89;21485;-84
2022/01/26 01:33:17;;;;;;;85.10;47.17;;;;;;;-3.85;80.03;101564.11;1431991;89;22778;-84
2022/01/26 01:35:42;;;;;;;85.38;47.38;;;;;;;-3.83;79.94;101557.59;1435198;88;22575;-84
2022/01/26 01:38:14;;;;;;;84.25;46.13;;;;;;;-3.80;79.45;101548.03;1436096;88;22590;-84
2022/01/26 01:40:44;;;;;;;89.13;49.88;;;;;;;-3.83;79.56;101553.72;1441010;87;21588;-84
2022/01/26 01:43:14;;;;;;;82.35;46.02;;;;;;;-3.88;79.04;101558.99;1435767;89;23584;-84
2022/01/26 01:45:47;;;;;;;84.37;45.50;;;;;;;-3.88;79.05;101553.82;1437333;88;21761;-84
2022/01/26 01:48:19;;;;;;;89.60;49.05;;;;;;;-3.88;80.31;101561.58;1435010;88;21481;-84
2022/01/26 01:50:49;;;;;;;93.33;50.80;;;;;;;-3.89;79.22;101539.16;1444225;88;21663;-84
2022/01/26 01:53:19;;;;;;;88.12;51.55;;;;;;;-3.95;80.78;101566.44;1449226;89;21448;-84
2022/01/26 01:55:50;;;;;;;87.17;49.15;;;;;;;-4.00;79.76;101559.19;1409934;89;21482;-84
2022/01/26 01:58:19;;;;;;;86.60;48.73;;;;;;;-4.01;80.25;101557.50;1444504;86;21389;-84
2022/01/26 02:00:46;;;;;;;90.10;49.70;;;;;;;-4.05;80.98;101566.20;1443112;88;21480;-84
2022/01/26 02:03:14;;;;;;;84.65;48.65;;;;;;;-4.13;80.92;101568.91;1427268;89;22399;-84
2022/01/26 02:05:41;;;;;;;92.05;50.33;;;;;;;-4.14;80.27;101555.13;1442377;88;21508;-85
2022/01/26 02:08:08;;;;;;;87.12;48.63;;;;;;;-4.05;80.49;101558.44;1433047;88;21537;-85
2022/01/26 02:10:36;;;;;;;86.40;44.77;;;;;;;-3.98;80.42;101550.97;1430159;89;21590;-84
2022/01/26 02:13:14;;;;;;;92.47;48.58;;;;;;;-3.92;79.83;101547.83;1433486;88;22434;-85
2022/01/26 02:15:45;;;;;;;89.28;51.13;;;;;;;-3.92;80.13;101549.12;1430030;88;22457;-84
2022/01/26 02:21:10;;;;;;;74.45;41.08;;;;;;;-3.91;80.22;101574.57;1436178;88;21612;-84
2022/01/26 02:54:15;;;;;;;84.67;47.15;;;;;;;-4.07;81.19;101545.97;1425669;89;21651;-85
2022/01/26 02:56:31;;;;;;;;;;;;;;;-4.07;81.70;101557.61;1431497;88;21435;-85
2022/01/26 02:59:46;;;;;;;;;;;;;;;;;;;;;
2022/01/26 03:06:40;;;;;;;84.50;46.70;;;;;;;-3.97;81.65;101569.48;1435284;89;21564;-81
2022/01/26 03:09:07;;;;;;;87.90;45.03;;;;;;;-3.94;81.36;101572.00;1429496;89;21722;-81
2022/01/26 03:11:32;;;;;;;82.80;45.75;;;;;;;-3.89;81.28;101561.99;1453500;89;21437;-81
2022/01/26 03:14:08;;;;;;;89.95;49.83;;;;;;;-3.85;81.16;101562.81;1453547;88;22339;-81
2022/01/26 03:16:34;;;;;;;84.40;49.75;;;;;;;-3.84;81.10;101565.80;1450748;89;22480;-83
2022/01/26 03:21:42;;;;;;;82.45;46.88;;;;;;;-3.94;81.31;101569.42;1452481;89;21393;-82
2022/01/26 03:34:35;;;;;;;84.25;45.52;;;;;;;-3.73;80.61;101548.34;1452789;88;21430;-83
2022/01/26 03:37:07;;;;;;;82.37;46.53;;;;;;;-3.74;80.74;101562.17;1446312;87;21585;-82
2022/01/26 03:39:39;;;;;;;84.32;49.13;;;;;;;-3.74;81.07;101558.30;1454272;87;22494;-82
2022/01/26 03:42:05;;;;;;;86.78;45.23;;;;;;;-3.73;80.53;101547.50;1445426;87;21571;-82
2022/01/26 03:44:33;;;;;;;89.00;49.30;;;;;;;-3.68;80.10;101536.18;1453652;87;21592;-84
2022/01/26 03:47:01;;;;;;;84.87;47.50;;;;;;;-3.67;80.22;101535.28;1454122;87;21452;-84
2022/01/26 03:49:28;;;;;;;87.72;47.70;;;;;;;-3.63;79.61;101526.57;1455186;87;21988;-86
2022/01/26 03:51:56;;;;;;;87.90;46.75;;;;;;;-3.63;79.35;101523.98;1439125;88;21651;-86
2022/01/26 03:54:23;;;;;;;88.37;47.55;;;;;;;-3.67;79.77;101534.44;1433677;88;22778;-86
2022/01/26 03:56:51;;;;;;;93.60;47.90;;;;;;;-3.67;79.41;101534.44;1444462;88;21634;-86
2022/01/26 03:59:18;;;;;;;82.12;46.88;;;;;;;-3.71;80.57;101541.83;1441331;88;22398;-86
2022/01/26 04:01:45;;;;;;;86.35;45.40;;;;;;;-3.70;79.96;101531.91;1428120;90;21459;-84
2022/01/26 04:04:12;;;;;;;84.30;46.58;;;;;;;-3.74;80.26;101540.19;1432686;90;21549;-85
2022/01/26 04:06:40;;;;;;;78.92;44.90;;;;;;;-3.70;79.78;101536.64;1436142;88;21427;-84
2022/01/26 04:09:10;;;;;;;73.85;41.65;;;;;;;-3.71;80.12;101550.89;1441241;88;21487;-88
2022/01/26 04:11:43;;;;;;;91.75;48.87;;;;;;;-3.76;80.01;101554.88;1448134;88;21506;-87
2022/01/26 04:14:13;;;;;;;74.65;41.83;;;;;;;-3.76;79.97;101543.68;1437751;89;22498;-83
2022/01/26 04:16:42;;;;;;;84.75;45.75;;;;;;;-3.84;81.12;101555.45;1438388;89;21457;-85
2022/01/26 04:19:11;;;;;;;80.10;45.52;;;;;;;-3.89;80.46;101540.45;1439333;88;21414;-86
2022/01/26 04:22:01;;;;;;;91.17;49.00;;;;;;;-3.94;81.09;101538.38;1450059;88;21375;-85
2022/01/26 04:24:30;;;;;;;82.55;46.88;;;;;;;-3.93;81.80;101544.84;1433522;89;22457;-85
2022/01/26 04:27:00;;;;;;;84.10;46.37;;;;;;;-3.94;80.85;101540.97;1425477;88;21554;-86
2022/01/26 04:29:28;;;;;;;84.92;46.42;;;;;;;-3.91;80.97;101546.12;1442703;89;21508;-85
2022/01/26 04:31:51;;;;;;;79.97;43.13;;;;;;;-3.85;81.02;101538.24;1430264;90;21429;-85
2022/01/26 04:34:20;;;;;;;92.65;50.75;;;;;;;-3.77;81.38;101537.66;1437983;90;22410;-86
2022/01/26 04:36:59;;;;;;;162.37;89.35;;;;;;;-3.76;81.15;101537.21;1442521;89;21464;-84
2022/01/26 04:39:28;;;;;;;94.65;52.88;;;;;;;-3.80;80.69;101528.63;1434695;90;22446;-85
2022/01/26 04:41:58;;;;;;;85.92;45.20;;;;;;;-3.82;80.54;101529.13;1436629;90;21472;-85
2022/01/26 04:44:34;;;;;;;86.35;47.93;;;;;;;-3.82;80.91;101530.42;1435947;90;21628;-86
2022/01/26 04:46:54;;;;;;;84.65;46.83;;;;;;;-3.80;80.68;101526.05;1440155;90;22547;-83
2022/01/26 04:49:22;;;;;;;77.32;44.13;;;;;;;-3.82;80.91;101521.36;1438425;89;21479;-83
2022/01/26 04:51:49;;;;;;;84.05;45.98;;;;;;;-3.80;80.58;101517.44;1437778;89;21413;-86
2022/01/26 04:54:16;;;;;;;78.33;44.30;;;;;;;-3.80;81.19;101520.88;1435687;89;22712;-86
2022/01/26 04:56:44;;;;;;;85.32;45.58;;;;;;;-3.81;80.94;101514.00;1438526;89;21473;-86
2022/01/26 04:59:11;;;;;;;91.45;48.95;;;;;;;-3.79;80.61;101503.20;1437570;88;21399;-85
2022/01/26 05:01:39;;;;;;;82.67;46.15;;;;;;;-3.71;80.22;101506.48;1437215;88;21592;-87
2022/01/26 05:04:07;;;;;;;84.15;46.33;;;;;;;-3.70;79.99;101491.36;1427291;89;22413;-85
2022/01/26 05:06:34;;;;;;;79.62;45.67;;;;;;;-3.71;79.89;101478.44;1436314;89;22210;-85
2022/01/26 05:09:02;;;;;;;81.57;45.20;;;;;;;-3.73;79.88;101478.49;1430670;89;21555;-85
2022/01/26 05:11:39;;;;;;;94.87;50.17;;;;;;;-3.73;79.98;101484.96;1442671;89;21519;-84
2022/01/26 05:14:07;;;;;;;89.28;51.63;;;;;;;-3.82;81.28;101489.03;1444673;88;21415;-84
2022/01/26 05:16:34;;;;;;;301.15;139.85;;;;;;;-3.79;81.29;101486.83;1435093;89;21457;-84
2022/01/26 05:19:04;;;;;;;131.93;68.37;;;;;;;-3.78;81.71;101496.28;1442159;89;21555;-83
2022/01/26 05:21:31;;;;;;;93.72;50.65;;;;;;;-3.76;80.99;101481.14;1440085;90;22499;-84
2022/01/26 05:23:58;;;;;;;94.42;51.58;;;;;;;-3.67;80.88;101480.10;1437717;90;21415;-84
2022/01/26 05:26:27;;;;;;;92.05;50.28;;;;;;;-3.64;80.90;101483.47;1447646;88;21450;-85
2022/01/26 05:28:55;;;;;;;87.10;46.60;;;;;;;-3.59;80.63;101476.08;1436974;89;21464;-86
2022/01/26 05:31:22;;;;;;;84.30;47.65;;;;;;;-3.58;80.57;101478.61;1449267;90;21962;-87
2022/01/26 05:33:50;;;;;;;83.37;46.98;;;;;;;-3.60;80.54;101476.49;1439172;89;21474;-87
2022/01/26 05:36:17;;;;;;;86.15;47.83;;;;;;;-3.55;80.17;101468.64;1438245;90;22148;-87
2022/01/26 05:38:45;;;;;;;89.60;46.28;;;;;;;-3.55;80.49;101484.17;1430443;90;21606;-86
2022/01/26 05:41:13;;;;;;;81.87;46.75;;;;;;;-3.51;80.19;101470.27;1434703;90;22099;-86
2022/01/26 05:43:40;;;;;;;107.37;58.28;;;;;;;-3.56;80.46;101485.06;1438709;89;21642;-86
2022/01/26 05:48:44;;;;;;;92.57;49.27;;;;;;;-3.50;80.11;101471.55;1402977;88;21503;-86
2022/01/26 05:51:08;;;;;;;94.47;51.10;;;;;;;-3.45;80.11;101483.11;1429552;89;21529;-82
2022/01/26 05:53:36;;;;;;;93.62;50.67;;;;;;;-3.40;79.83;101472.19;1421301;90;21429;-84
2022/01/26 05:56:05;;;;;;;96.30;50.58;;;;;;;-3.40;79.79;101483.84;1452179;89;21547;-83
2022/01/26 05:58:36;;;;;;;88.75;51.58;;;;;;;-3.40;79.84;101469.16;1440839;90;21480;-83
2022/01/26 06:01:05;;;;;;;83.60;46.08;;;;;;;-3.44;80.08;101484.35;1430853;88;21563;-84
2022/01/26 06:03:32;;;;;;;95.83;53.83;;;;;;;-3.47;79.70;101481.83;1437655;87;21544;-84
2022/01/26 06:06:00;;;;;;;102.80;54.98;;;;;;;-3.50;80.15;101494.00;1439617;89;21442;-86
2022/01/26 06:08:27;;;;;;;89.80;49.73;;;;;;;-3.53;79.76;101500.08;1443618;89;21511;-82
2022/01/26 06:10:59;;;;;;;85.72;47.53;;;;;;;-3.51;79.73;101495.73;1447298;89;21455;-81
2022/01/26 06:13:27;;;;;;;82.85;45.83;;;;;;;-3.40;80.09;101491.61;1436012;89;22502;-82
2022/01/26 06:15:54;;;;;;;85.90;46.25;;;;;;;-3.40;79.60;101487.72;1447605;88;21412;-86
2022/01/26 06:18:30;;;;;;;79.90;45.10;;;;;;;-3.37;79.66;101481.18;1438725;89;21620;-86
2022/01/26 06:20:58;;;;;;;82.97;44.95;;;;;;;-3.39;79.74;101484.27;1429303;89;21656;-84
2022/01/26 06:23:26;;;;;;;93.15;52.13;;;;;;;-3.41;79.53;101489.91;1446080;88;21393;-82
2022/01/26 06:25:55;;;;;;;87.82;48.98;;;;;;;-3.38;79.54;101492.43;1452392;88;22321;-84
2022/01/26 06:28:26;;;;;;;84.67;47.45;;;;;;;-3.44;80.30;101507.65;1445357;88;22287;-87
2022/01/26 06:31:00;;;;;;;83.92;45.60;;;;;;;-3.41;80.29;101502.85;1434799;90;21560;-88
2022/01/26 06:33:27;;;;;;;76.17;42.90;;;;;;;-3.53;80.12;101516.91;1435651;90;21471;-88
2022/01/26 06:35:57;;;;;;;77.05;43.50;;;;;;;-3.65;81.01;101523.19;1440008;90;22301;-87
2022/01/26 06:38:24;;;;;;;81.12;43.63;;;;;;;-3.75;80.99;101521.64;1445361;88;21683;-87
2022/01/26 06:40:53;;;;;;;79.82;45.33;;;;;;;-3.74;80.62;101512.14;1445556;88;21449;-86
2022/01/26 06:43:22;;;;;;;88.05;47.98;;;;;;;-3.69;81.04;101509.88;1444245;89;21471;-86
2022/01/26 06:45:55;;;;;;;78.60;44.05;;;;;;;-3.63;80.69;101516.22;1435409;89;21575;-86
2022/01/26 06:50:59;;;;;;;81.78;45.30;;;;;;;-3.54;80.96;101515.63;1444847;89;21678;-86
2022/01/26 06:53:28;;;;;;;80.10;44.90;;;;;;;-3.53;80.94;101514.77;1433525;89;22270;-85
2022/01/26 06:55:55;;;;;;;80.50;44.35;;;;;;;-3.53;80.80;101514.31;1442539;88;21518;-85
2022/01/26 06:58:24;;;;;;;77.60;41.58;;;;;;;-3.52;80.52;101516.01;1429392;89;22491;-86
2022/01/26 07:00:55;;;;;;;85.00;47.60;;;;;;;-3.47;80.55;101510.30;1441391;88;21486;-85
2022/01/26 07:03:22;;;;;;;62.90;36.35;;;;;;;-3.41;80.49;101509.33;1435575;89;21467;-85
2022/01/26 07:05:49;;;;;;;73.95;42.35;;;;;;;-3.44;80.48;101523.62;1448105;87;23337;-85
2022/01/26 07:08:16;;;;;;;83.50;45.50;;;;;;;-3.46;80.17;101527.52;1445902;87;21463;-85
2022/01/26 07:10:47;;;;;;;84.37;46.37;;;;;;;-3.47;80.16;101527.12;1434375;89;22626;-85
2022/01/26 07:13:13;;;;;;;79.37;43.13;;;;;;;-3.45;80.27;101521.94;1430691;89;21782;-84
2022/01/26 07:21:28;;;;;;;80.47;44.58;;;;;;;-3.51;80.03;101522.03;1435128;88;21445;-85
2022/01/26 07:23:58;;;;;;;83.95;42.67;;;;;;;-3.46;80.08;101516.33;1448051;89;22403;-85
2022/01/26 07:26:29;;;;;;;85.10;45.73;;;;;;;-3.49;80.45;101526.30;1426823;88;21607;-85
2022/01/26 07:29:05;;;;;;;77.27;43.52;;;;;;;-3.46;80.24;101520.20;1457145;88;21456;-84
2022/01/26 07:31:30;;;;;;;86.90;47.90;;;;;;;-3.40;80.18;101508.43;1450526;87;21626;-85
2022/01/26 07:33:58;;;;;;;90.80;49.10;;;;;;;-3.33;80.45;101519.53;1476411;88;21361;-85
2022/01/26 07:36:25;;;;;;;92.80;49.55;;;;;;;-3.27;79.99;101518.09;1470762;87;21399;-85
2022/01/26 07:38:55;;;;;;;90.03;50.75;;;;;;;-3.21;79.91;101505.86;1433078;88;21484;-84
2022/01/26 07:41:22;;;;;;;101.00;54.35;;;;;;;-3.16;79.75;101508.36;1431357;87;21328;-85
2022/01/26 07:43:50;;;;;;;116.03;53.38;;;;;;;-3.14;79.78;101524.70;1443245;87;21392;-84
2022/01/26 07:46:17;;;;;;;97.95;52.00;;;;;;;-3.12;79.58;101526.82;1403547;89;22317;-84
2022/01/26 07:48:44;;;;;;;98.70;52.78;;;;;;;-3.08;79.73;101517.23;1431308;87;21369;-84
2022/01/26 07:51:11;;;;;;;99.25;52.80;;;;;;;-3.03;79.25;101518.84;1444832;88;23263;-85
2022/01/26 07:53:39;;;;;;;99.50;53.95;;;;;;;-3.00;79.35;101516.62;1443822;88;21729;-84
2022/01/26 07:56:06;;;;;;;97.30;55.23;;;;;;;-2.95;79.25;101516.94;1442817;88;22543;-85
2022/01/26 07:58:33;;;;;;;92.70;51.33;;;;;;;-2.89;79.18;101518.53;1435204;90;21479;-84
2022/01/26 08:01:00;;;;;;;99.90;52.48;;;;;;;-2.95;79.15;101538.11;1426668;90;22370;-84
2022/01/26 08:03:33;;;;;;;100.35;54.65;;;;;;;-2.97;78.95;101517.86;1410138;90;21532;-87
2022/01/26 08:05:58;;;;;;;91.30;50.30;;;;;;;-2.92;78.93;101525.53;1412278;90;21519;-85
2022/01/26 08:08:26;;;;;;;129.87;79.17;;;;;;;-2.87;79.02;101519.81;1413066;91;21390;-85
2022/01/26 08:10:53;;;;;;;100.70;53.70;;;;;;;-2.84;78.94;101537.42;1401802;91;21418;-85
2022/01/26 08:13:20;;;;;;;132.67;75.92;;;;;;;-2.87;78.66;101527.58;1386244;91;21495;-85
2022/01/26 08:15:47;;;;;;;101.38;58.63;;;;;;;-2.84;78.85;101537.88;1438700;88;21614;-85
2022/01/26 08:18:15;;;;;;;91.17;48.92;;;;;;;-2.81;78.70;101535.21;1435159;88;22557;-82
2022/01/26 08:20:42;;;;;;;121.13;61.65;;;;;;;-2.71;78.99;101531.50;1444558;88;21571;-86
2022/01/26 08:23:09;;;;;;;95.60;54.50;;;;;;;-2.69;78.83;101541.84;1450635;88;21455;-85
2022/01/26 08:25:37;;;;;;;106.67;56.40;;;;;;;-2.60;78.80;101530.80;1447321;87;21537;-87
2022/01/26 08:28:14;;;;;;;374.95;134.97;;;;;;;-2.58;78.00;101521.71;1456282;88;21539;-85
2022/01/26 08:30:38;;;;;;;204.68;79.32;;;;;;;-2.56;77.77;101526.39;1422044;88;21662;-84
2022/01/26 08:33:06;;;;;;;92.97;50.28;;;;;;;-2.56;77.85;101530.28;1422187;89;21305;-83
2022/01/26 08:35:35;;;;;;;91.12;50.10;;;;;;;-2.63;77.38;101532.63;1422488;91;22543;-83
2022/01/26 08:38:03;;;;;;;121.10;59.80;;;;;;;-2.62;77.66;101533.02;1411270;91;22480;-84
2022/01/26 08:40:33;;;;;;;88.60;50.83;;;;;;;-2.60;77.75;101537.73;1405603;91;21510;-83
2022/01/26 08:43:01;;;;;;;109.05;54.95;;;;;;;-2.55;77.71;101521.64;1461168;88;21517;-84
2022/01/26 08:45:29;;;;;;;200.22;80.03;;;;;;;-2.48;77.48;101521.87;1451761;87;21469;-83
2022/01/26 08:47:57;;;;;;;121.70;61.95;;;;;;;-2.49;77.31;101529.26;1457856;87;21509;-84
2022/01/26 08:50:24;;;;;;;85.10;50.05;;;;;;;-2.41;77.42;101523.45;1456967;87;22440;-83
2022/01/26 08:52:52;;;;;;;95.67;54.18;;;;;;;-2.32;77.47;101515.42;1431331;88;21566;-84
2022/01/26 08:55:19;;;;;;;99.67;53.92;;;;;;;-2.23;77.46;101518.69;1441926;88;21443;-84
2022/01/26 08:57:47;;;;;;;100.27;53.35;;;;;;;-2.21;76.99;101511.72;1423182;89;21514;-84
2022/01/26 09:00:17;;;;;;;413.20;173.02;;;;;;;-2.24;76.98;101519.13;1436082;88;21538;-87
2022/01/26 09:02:45;;;;;;;226.98;99.45;;;;;;;-2.22;76.80;101524.27;1436756;89;22477;-85
2022/01/26 09:05:13;;;;;;;149.75;73.78;;;;;;;-2.15;77.06;101531.02;1413380;89;21441;-85
2022/01/26 09:07:43;;;;;;;404.57;168.45;;;;;;;-2.15;76.86;101539.64;1444671;89;21429;-84
2022/01/26 09:10:10;;;;;;;170.40;85.40;;;;;;;-2.18;76.83;101546.20;1428359;89;21456;-85
2022/01/26 09:12:41;;;;;;;118.75;60.60;;;;;;;-2.13;77.00;101553.43;1411754;90;21544;-85
2022/01/26 09:15:12;;;;;;;140.40;68.30;;;;;;;-2.05;77.15;101543.69;1432625;89;21440;-84
2022/01/26 09:17:39;;;;;;;119.30;62.35;;;;;;;-2.08;76.88;101546.81;1434694;89;22350;-85
2022/01/26 09:20:09;;;;;;;122.15;65.12;;;;;;;-2.02;77.09;101544.50;1434051;89;21323;-85
2022/01/26 09:22:39;;;;;;;120.40;63.28;;;;;;;-1.98;77.15;101558.66;1432260;89;21605;-85
2022/01/26 09:25:06;;;;;;;97.37;54.88;;;;;;;-2.02;76.58;101542.76;1424731;90;21501;-80
2022/01/26 09:27:36;;;;;;;107.45;58.73;;;;;;;-2.07;76.70;101544.64;1430776;90;21456;-82
2022/01/26 09:30:04;;;;;;;108.25;58.78;;;;;;;-2.15;76.82;101538.80;1428496;89;21316;-82
2022/01/26 09:32:31;;;;;;;169.90;82.50;;;;;;;-2.15;76.74;101541.39;1434136;89;21361;-82
2022/01/26 09:34:59;;;;;;;141.20;73.07;;;;;;;-2.10;77.41;101534.31;1433381;90;22314;-84
2022/01/26 09:37:28;;;;;;;102.67;57.60;;;;;;;-1.99;77.50;101538.78;1432752;89;21537;-84
2022/01/26 09:39:56;;;;;;;124.27;65.65;;;;;;;-1.84;77.48;101538.84;1434124;89;21419;-83
2022/01/26 09:42:23;;;;;;;107.07;57.15;;;;;;;-1.72;77.29;101537.20;1416184;89;21456;-83
2022/01/26 09:44:51;;;;;;;91.32;53.92;;;;;;;-1.70;76.45;101531.95;1443371;89;21434;-83
2022/01/26 09:47:21;;;;;;;95.15;52.25;;;;;;;-1.69;76.23;101523.30;1421925;89;21450;-84
2022/01/26 09:49:50;;;;;;;134.43;72.67;;;;;;;-1.67;76.36;101524.08;1429469;89;21375;-83
2022/01/26 09:52:29;;;;;;;135.93;72.72;;;;;;;-1.59;76.36;101524.72;1430026;89;21375;-83
2022/01/26 09:54:47;;;;;;;121.75;66.37;;;;;;;-1.55;75.96;101516.39;1434332;89;22081;-84
2022/01/26 09:57:17;;;;;;;99.05;57.85;;;;;;;-1.56;75.56;101515.55;1444759;89;21453;-83
2022/01/26 09:59:44;;;;;;;95.87;56.50;;;;;;;-1.49;75.66;101511.90;1463399;87;21670;-89
2022/01/26 10:02:22;;;;;;;105.35;58.83;;;;;;;-1.42;75.65;101508.22;1447610;88;21339;-90
2022/01/26 10:05:05;;;;;;;106.78;59.23;;;;;;;-1.33;75.39;101508.84;1449519;88;21430;-92
2022/01/26 10:16:29;;;;;;;103.42;57.48;;;;;;;-1.16;74.36;101504.84;1442574;87;21601;-93
2022/01/26 10:18:33;;;;;;;98.00;58.25;;;;;;;-1.16;74.53;101501.40;1436889;87;21563;-90
2022/01/26 10:21:03;;;;;;;105.07;58.80;;;;;;;-1.18;74.28;101503.19;1449614;88;21428;-91
2022/01/26 10:23:41;;;;;;;101.15;58.68;;;;;;;-1.19;74.41;101495.00;1433321;89;22915;-90
2022/01/26 10:26:19;;;;;;;108.10;61.48;;;;;;;-1.11;74.82;101486.53;1439717;88;21541;-89
2022/01/26 10:28:59;;;;;;;111.12;64.53;;;;;;;-0.95;75.13;101474.77;1443500;88;21437;-88
2022/01/26 10:31:30;;;;;;;117.15;66.95;;;;;;;-0.79;74.82;101472.52;1474384;88;21571;-90
2022/01/26 10:34:14;;;;;;;115.03;66.85;;;;;;;-0.63;74.87;101466.38;1458903;88;21616;-92
2022/01/26 10:37:00;;;;;;;109.65;62.00;;;;;;;-0.56;74.37;101452.26;1462125;87;21472;-92
2022/01/26 10:39:38;;;;;;;123.03;66.57;;;;;;;-0.48;74.43;101452.86;1480802;87;21547;-92
2022/01/26 10:42:06;;;;;;;117.63;66.53;;;;;;;-0.40;74.20;101453.03;1447432;88;21829;-88
2022/01/26 10:45:04;;;;;;;89.90;56.13;;;;;;;-0.29;74.44;101441.80;1458609;87;21992;-88
2022/01/26 10:47:32;;;;;;;95.47;55.52;;;;;;;-0.22;74.08;101430.30;1441907;89;22855;-88
2022/01/26 10:50:29;;;;;;;103.00;55.73;;;;;;;-0.36;73.62;101458.55;1440039;89;21532;-87
2022/01/26 10:52:38;;;;;;;145.22;76.17;;;;;;;-0.53;76.04;101476.86;1425276;88;21533;-82
2022/01/26 10:55:08;;;;;;;109.30;60.23;;;;;;;-0.45;75.10;101457.11;1448067;87;22376;-82
2022/01/26 10:57:36;;;;;;;96.93;57.77;;;;;;;-0.58;73.52;101473.55;1456015;87;21467;-81
2022/01/26 11:00:07;;;;;;;97.43;55.10;;;;;;;-0.65;73.80;101455.62;1447191;87;21842;-85
2022/01/26 11:02:34;;;;;;;109.37;63.40;;;;;;;-0.58;74.11;101455.80;1451253;87;23036;-85
2022/01/26 11:05:02;;;;;;;106.57;60.97;;;;;;;-0.63;73.55;101453.38;1436417;88;21420;-85
2022/01/26 11:07:45;;;;;;;117.30;67.62;;;;;;;-0.56;74.03;101454.86;1447994;86;21899;-85
2022/01/26 11:10:11;;;;;;;117.67;67.43;;;;;;;-0.48;74.02;101443.75;1432250;88;21523;-85
2022/01/26 11:12:41;;;;;;;119.22;70.47;;;;;;;-0.50;73.34;101447.30;1447071;88;21774;-85
2022/01/26 11:15:16;;;;;;;120.13;67.80;;;;;;;-0.49;73.24;101442.06;1457225;88;21613;-85
2022/01/26 11:17:46;;;;;;;117.40;68.23;;;;;;;-0.56;73.05;101417.16;1444057;87;22837;-86
2022/01/26 11:20:34;;;;;;;123.22;71.22;;;;;;;-0.64;73.35;101414.41;1442569;87;21947;-85
2022/01/26 11:23:05;;;;;;;119.37;68.67;;;;;;;-0.64;73.95;101408.76;1448403;87;21415;-86
2022/01/26 11:25:45;;;;;;;114.72;69.25;;;;;;;-0.63;73.83;101405.28;1461625;87;21508;-86
2022/01/26 11:28:23;;;;;;;115.45;65.80;;;;;;;-0.69;73.80;101402.89;1460722;87;21416;-86
2022/01/26 11:30:57;;;;;;;114.17;65.97;;;;;;;-0.70;74.37;101402.02;1463684;87;21377;-85
2022/01/26 11:33:27;;;;;;;111.13;64.60;;;;;;;-0.63;74.43;101402.67;1464628;87;21560;-85
2022/01/26 11:35:58;;;;;;;121.35;69.42;;;;;;;-0.62;74.30;101405.66;1448869;88;22365;-86
2022/01/26 11:47:21;;;;;;;122.80;69.97;;;;;;;-0.34;74.33;101419.03;1455289;87;22093;-86
2022/01/26 11:49:53;;;;;;;120.08;67.35;;;;;;;-0.30;74.49;101424.51;1456338;87;22493;-87
2022/01/26 11:52:25;;;;;;;108.10;63.77;;;;;;;-0.16;74.48;101416.22;1438066;89;21377;-86
2022/01/26 11:54:57;;;;;;;110.23;66.00;;;;;;;-0.03;74.55;101417.03;1460356;87;22017;-85
2022/01/26 11:57:48;;;;;;;110.48;66.22;;;;;;;0.16;74.62;101405.93;1459041;87;22015;-85
2022/01/26 12:00:20;;;;;;;116.43;67.63;;;;;;;0.22;72.95;101411.75;1471337;87;21530;-86
2022/01/26 12:05:19;;;;;;;122.67;68.97;;;;;;;0.38;73.23;101404.68;1450785;88;21671;-86
2022/01/26 12:07:56;;;;;;;108.20;63.00;;;;;;;0.49;73.14;101393.83;1422435;87;21537;-86
2022/01/26 12:10:32;;;;;;;109.10;64.47;;;;;;;0.63;72.91;101386.32;1402522;89;22273;-87
2022/01/26 12:13:06;;;;;;;108.03;62.17;;;;;;;0.73;72.67;101390.27;1455446;87;21751;-87
2022/01/26 12:15:49;;;;;;;115.87;64.00;;;;;;;0.80;72.04;101396.92;1436978;88;21861;-87
2022/01/26 12:33:16;;;;;;;89.57;55.00;;;;;;;0.31;70.34;101387.12;1468980;88;23074;-87
2022/01/26 12:36:01;;;;;;;89.03;52.43;;;;;;;0.17;71.09;101382.46;1444672;87;21617;-88
2022/01/26 12:38:33;;;;;;;86.50;51.87;;;;;;;0.18;71.45;101378.09;1462533;88;21733;-88
2022/01/26 12:41:13;;;;;;;87.97;52.60;;;;;;;0.26;71.70;101378.66;1467083;88;22691;-91
2022/01/26 12:43:44;;;;;;;91.03;52.83;;;;;;;0.26;71.34;101380.39;1456089;87;21765;-86
2022/01/26 12:46:16;;;;;;;88.30;49.37;;;;;;;0.25;71.38;101376.94;1474852;88;21730;-86
2022/01/26 12:48:49;;;;;;;90.33;53.57;;;;;;;0.21;71.21;101374.07;1469455;88;22686;-88
2022/01/26 12:51:16;;;;;;;82.67;48.77;;;;;;;0.22;71.48;101367.95;1458941;88;21729;-87
2022/01/26 12:53:44;;;;;;;108.57;63.50;;;;;;;0.15;70.92;101376.91;1462735;88;21953;-88
2022/01/26 12:56:13;;;;;;;117.60;65.00;;;;;;;0.14;71.29;101366.08;1445298;88;21968;-87
2022/01/26 13:02:22;;;;;;;96.47;54.08;;;;;;;0.05;71.82;101360.77;1427873;87;21806;-88
2022/01/26 13:05:02;;;;;;;99.80;55.23;;;;;;;0.04;71.87;101352.58;1454567;88;21493;-89
2022/01/26 13:07:30;;;;;;;99.57;55.53;;;;;;;-0.02;72.44;101367.97;1443549;88;21826;-89
2022/01/26 13:09:57;;;;;;;102.07;58.10;;;;;;;-0.24;73.47;101386.56;1460048;87;21673;-89
2022/01/26 13:12:32;;;;;;;100.47;58.20;;;;;;;-0.21;72.92;101362.19;1466562;87;21609;-89
2022/01/26 13:15:22;;;;;;;109.57;63.60;;;;;;;-0.30;73.54;101384.19;1446629;88;22199;-88
2022/01/26 13:17:54;;;;;;;97.70;59.23;;;;;;;-0.36;73.57;101373.55;1448848;87;22695;-90
2022/01/26 13:28:33;;;;;;;150.60;78.92;;;;;;;-0.39;73.87;101368.91;1448095;89;22322;-87
2022/01/26 13:37:11;;;;;;;120.67;64.27;;;;;;;-0.03;73.76;101367.58;1457330;87;21640;-88
2022/01/26 14:00:38;;;;;;;98.10;58.90;;;;;;;0.37;72.46;101346.52;1464340;88;22609;-88
2022/01/26 14:03:04;;;;;;;94.67;57.97;;;;;;;0.58;72.41;101351.81;1458105;88;21884;-87
2022/01/26 14:05:32;;;;;;;96.47;56.27;;;;;;;0.66;71.57;101354.94;1464377;87;21681;-87
2022/01/26 14:07:59;;;;;;;88.43;51.93;;;;;;;0.58;70.59;101359.63;1433202;89;21717;-87